Reno (UNR), Valley Road, Nevada Weather observations

Data are for observation ending at time listed.
 Day   Time    Ave.   Ave.  Ave.  Vector   Max.    Total    Solar   Rl      Baro.   Ave.  
  of    of     Air    Rel.  Wind   Wind    Wind   Precip.   Rad.    in      Pres.   Soil  
Year   Day     Temp.  Hum.  Speed  Dir.    Gust                                     Temp. 
2026   (PST)    F      %     mph   deg.    mph      in.     W/m2    W/m2     mb.     F   
-----------------------------------------------------------------------------------------
 125   13:00   69.6    43    5.4   146      9.9     0.00     870     385    859.5   62.6
 125   13:10   68.2    44    4.4   152     10.1     0.00     619     371    859.5   62.9
 125   13:20   68.2    42    2.8   310      5.8     0.00     978     372    859.4   63.3
 125   13:30   68.6    41    4.2   336      7.6     0.00     951     376    859.3   63.6
 125   13:40   67.9    41    7.1   328     16.3     0.00    1004     381    859.2   63.8
 125   13:50   67.9    41    5.1   338     11.3     0.00     941     377    859.1   64.0
 125   14:00   69.3    38    4.6   280      9.2     0.00     997     375    859.0   64.2
 125   14:10   69.0    39    5.8   331     12.6     0.00     818     377    858.8   64.4
 125   14:20   69.6    37    3.1   321      8.0     0.00     694     370    858.8   64.6
 125   14:30   71.8    33    3.3   152      7.2     0.00     812     370    858.5   64.8
 125   14:40   70.8    34    5.7   296     10.5     0.00     681     371    858.5   65.0
 125   14:50   70.1    32    4.0     4     10.5     0.00     573     373    858.4   65.3
 125   15:00   69.2    33    3.6    28     11.8     0.00     160     368    858.4   65.5
 125   15:10   69.4    33    8.6    48     14.2     0.00     498     362    858.2   65.8
 125   15:20   70.3    33    6.2   345     11.9     0.00     431     364    858.2   66.0
 125   15:30   70.2    33    6.6    21     11.4     0.00     462     363    858.1   66.2
 125   15:40   71.0    33    5.9   319     11.9     0.00     597     368    858.1   66.3
 125   15:50   71.7    32    5.3    44     11.9     0.00     658     371    858.1   66.5
 125   16:00   72.3    32    5.4   326     10.8     0.00     687     386    858.0   66.6
 125   16:10   72.0    33    5.8   308     11.8     0.00     589     379    858.0   66.7
 125   16:20   72.0    32    6.3   343     10.8     0.00     548     370    858.0   66.8
 125   16:30   72.6    32    4.3   290      9.7     0.00     474     378    858.0   66.9
 125   16:40   72.5    32    5.6   272     10.6     0.00     386     365    858.0   67.0
 125   16:50   72.0    32    6.4   321     10.6     0.00     411     364    858.0   67.1
 125   17:00   72.2    32    5.5   311      9.5     0.00     375     364    858.0   67.3
 125   17:10   72.5    30    3.8   312      7.2     0.00     339     359    858.0   67.4
 125   17:20   72.2    30    4.1   355      8.1     0.00     301     360    858.0   67.5
 125   17:30   72.9    30    4.3   272      8.6     0.00     264     359    858.0   67.5
 125   17:40   72.2    32    4.9   266      9.6     0.00     231     359    857.9   67.6
 125   17:50   72.6    32    3.6   268      7.1     0.00     160     356    857.9   67.6
 125   18:00   71.9    33    3.5   247      6.1     0.00      67     355    858.0   67.6
 125   18:10   71.2    33    3.6   272      6.1     0.00     126     353    858.0   67.6
 125   18:20   71.1    34    3.9   270      6.9     0.00     104     354    858.1   67.6
 125   18:30   70.6    36    3.8   300      7.4     0.00      46     355    858.1   67.5
 125   18:40   69.2    38    4.1   282      6.8     0.00      18     352    858.3   67.4
 125   18:50   68.5    38    4.1   284      8.5     0.00      11     354    858.4   67.3
 125   19:00   67.7    39    4.5   300      8.4     0.00       5     360    858.5   67.2
 125   19:10   67.1    40    4.5   294      9.0     0.00       2     354    858.5   67.1
 125   19:20   66.8    42    3.0   304      5.2     0.00       0     377    858.6   66.9
 125   19:30   66.7    42    2.7   304      5.1     0.00       0     385    858.7   66.8
 125   19:40   66.7    41    2.7   318      5.0     0.00       0     388    858.9   66.6
 125   19:50   66.3    41    0.8    11      2.3     0.00       0     387    859.0   66.5
 125   20:00   66.4    41    4.7    17      8.2     0.00       0     386    859.3   66.3
 125   20:10   66.9    41    7.0    28     10.5     0.00       0     390    859.6   66.2
 125   20:20   66.3    43    7.2   343     10.8     0.00       0     389    859.7   66.0
 125   20:30   66.0    44    5.4   330      8.4     0.00       0     380    859.7   65.9
 125   20:40   65.6    45    3.3   337      6.2     0.00       0     371    859.8   65.7
 125   20:50   65.4    43    2.8   353      6.2     0.00       0     360    859.9   65.6
 125   21:00   65.2    42    2.7   351      5.8     0.00       0     351    860.1   65.5
 125   21:10   64.8    42    2.6    20      5.4     0.00       0     346    860.2   65.3
 125   21:20   64.0    44    2.7    79      4.7     0.00       0     339    860.4   65.2
 125   21:30   64.0    44    1.6    79      3.3     0.00       0     333    860.5   65.1
 125   21:40   63.0    47    1.9    93      3.7     0.00       0     331    860.6   64.9
 125   21:50   62.2    49    2.8    79      5.0     0.00       0     328    860.8   64.8
 125   22:00   61.5    50    0.9    60      2.4     0.00       0     330    860.9   64.7
 125   22:10   59.9    55    2.4   248      4.6     0.00       0     328    861.2   64.5
 125   22:20   60.1    53    2.6   278      4.9     0.00       0     328    861.2   64.4
 125   22:30   60.5    52    3.1   273      6.1     0.00       0     326    861.4   64.2
 125   22:40   60.1    54    3.7   260      7.0     0.00       0     323    861.4   64.1
 125   22:50   59.8    56    4.2   233      7.8     0.00       0     326    861.6   63.9
 125   23:00   59.2    58    2.2   216      4.1     0.00       0     326    861.6   63.8
 125   23:10   58.6    59    1.9    97      3.4     0.00       0     324    861.7   63.6
 125   23:20   57.3    62    1.9   314      2.6     0.00       0     321    861.8   63.4
 125   23:30   55.3    66    2.1   315      3.6     0.00       0     322    861.9   63.3
 125   23:40   54.3    68    2.0   268      4.0     0.00       0     320    862.0   63.1
 125   23:50   54.3    68    1.7   222      3.7     0.00       0     319    862.0   63.0
 126    0:00   54.0    70    1.4   254      3.5     0.00       0     317    862.2   62.8
 126    0:10   53.3    71    1.1   304      2.8     0.00       0     317    862.3   62.7
 126    0:20   53.7    70    2.2   334      3.9     0.00       0     329    862.3   62.5
 126    0:30   52.9    73    2.3   338      4.7     0.00       0     342    862.4   62.4
 126    0:40   53.1    74    1.7    22      4.0     0.00       0     325    862.4   62.2
 126    0:50   52.8    74    1.3   302      3.4     0.00       0     314    862.5   62.1
 126    1:00   52.6    75    1.5   310      2.9     0.00       0     313    862.5   61.9
 126    1:10   51.3    78    3.3   336      5.8     0.00       0     314    862.6   61.8
 126    1:20   51.2    79    2.1   343      4.6     0.00       0     311    862.6   61.7
 126    1:30   51.1    79    1.0   251      2.6     0.00       0     309    862.7   61.5
 126    1:40   50.9    79    1.4   302      4.0     0.00       0     307    862.8   61.4
 126    1:50   50.5    80    1.3   329      3.9     0.00       0     309    862.9   61.3
 126    2:00   49.9    82    1.5   315      3.0     0.00       0     311    863.0   61.1
 126    2:10   49.9    82    2.2   300      4.9     0.00       0     310    863.0   61.0
 126    2:20   49.1    84    0.7   143      2.0     0.00       0     310    863.1   60.9
 126    2:30   49.0    84    1.0   333      2.6     0.00       0     311    863.2   60.7
 126    2:40   49.0    85    1.6   300      2.6     0.00       0     320    863.4   60.6
 126    2:50   49.2    85    1.6   337      3.0     0.00       0     328    863.4   60.5
 126    3:00   49.1    85    1.1   168      2.8     0.00       0     327    863.6   60.4
 126    3:10   49.4    86    1.8   326      3.6     0.00       0     326    863.7   60.2
 126    3:20   49.5    85    1.5   269      2.9     0.00       0     318    864.0   60.1
 126    3:30   48.7    87    1.2   276      2.7     0.00       0     311    864.0   60.0
 126    3:40   48.7    87    2.0   268      3.0     0.00       0     309    864.1   59.9
 126    3:50   48.3    88    1.6   309      3.8     0.00       0     308    864.2   59.8
 126    4:00   48.3    88    1.5   337      3.7     0.00       0     308    864.3   59.7
 126    4:10   48.1    88    1.2   299      3.4     0.00       0     307    864.4   59.6
 126    4:20   47.7    88    2.3   286      4.0     0.00       0     306    864.5   59.5
 126    4:30   47.2    89    1.5   293      2.6     0.00       0     304    864.6   59.3
 126    4:40   47.6    89    1.9   295      4.5     0.00       0     306    864.7   59.2
 126    4:50   47.5    89    0.8   315      2.0     0.00       2     304    865.0   59.1
 126    5:00   47.1    89    0.4   299      2.4     0.00       6     302    864.9   59.0
 126    5:10   46.9    91    1.3   306      2.9     0.00      13     302    865.2   58.9
 126    5:20   47.6    90    1.1   340      3.6     0.00      28     302    865.3   58.8
 126    5:30   48.8    87    1.0   282      2.3     0.00      49     301    865.5   58.7
 126    5:40   49.9    85    2.1   344      4.3     0.00      81     303    865.5   58.6
 126    5:50   51.8    83    1.2    10      2.9     0.00     115     307    865.6   58.5
 126    6:00   53.7    79    1.2   303      2.5     0.00     140     308    865.9   58.4
 126    6:10   55.5    75    1.2   338      2.3     0.00     168     312    865.9   58.3
 126    6:20   56.9    71    1.4   359      2.7     0.00     201     315    866.1   58.2
 126    6:30   58.3    69    0.9   275      2.3     0.00     230     317    866.2   58.1
 126    6:40   61.0    63    0.9   123      2.0     0.00     265     322    866.3   58.1
 126    6:50   63.0    59    0.3   100      1.8     0.00     306     324    866.4   58.1
 126    7:00   65.0    55    0.9   244      2.4     0.00     342     328    866.5   58.1
 126    7:10   65.0    55    1.7   228      3.1     0.00     377     332    866.5   58.1
 126    7:20   65.3    54    1.8   203      3.1     0.00     414     333    866.5   58.1
 126    7:30   67.0    51    1.5   204      3.5     0.00     451     336    866.5   58.2
 126    7:40   67.0    50    1.7   228      2.8     0.00     488     338    866.5   58.3
 126    7:50   67.1    50    2.0    98      3.7     0.00     522     341    866.4   58.4
 126    8:00   67.1    48    2.5    91      5.9     0.00     556     344    866.5   58.6
 126    8:10   68.1    44    2.5   329      7.0     0.00     588     348    866.5   58.7
 126    8:20   66.1    42    5.8   349     12.0     0.00     626     347    866.5   58.9
 126    8:30   66.0    41    6.8   333     11.7     0.00     660     343    866.6   59.2
 126    8:40   66.1    41    6.6   325     11.9     0.00     691     344    866.6   59.4
 126    8:50   66.5    40    7.3    16     11.8     0.00     725     344    866.6   59.7
 126    9:00   67.1    38    6.2   322     11.4     0.00     752     347    866.5   59.9
 126    9:10   67.5    35    8.8     4     15.2     0.00     787     348    866.6   60.1
 126    9:20   68.2    34    7.0   351     15.2     0.00     812     349    866.6   60.3
 126    9:30   68.3    36    5.4   343     11.8     0.00     833     351    866.7   60.5
 126    9:40   68.8    32    8.0   353     15.0     0.00     859     354    866.7   60.6
 126    9:50   69.5    30    9.0    25     14.9     0.00     885     353    866.7   60.7
 126   10:00   69.8    30    7.8    10     12.2     0.00     904     356    866.6   60.8
 126   10:10   70.6    30    7.1     5     28.7     0.00     924     356    866.7   60.9
 126   10:20   70.5    30    8.5    25     12.4     0.00     946     359    866.7   61.0
 126   10:30   71.0    29    6.1   325     11.9     0.00     955     360    866.7   61.1
 126   10:40   71.5    28    3.7   326      7.6     0.00     976     361    866.7   61.4
 126   10:50   72.1    27    6.1   355     12.2     0.00     990     364    866.7   61.7
 126   11:00   72.2    26    4.4   354      9.1     0.00    1003     362    866.6   62.0
 126   11:10   73.1    26    6.3    52     13.6     0.00    1009     366    866.5   62.4
 126   11:20   72.8    23    8.3     9     13.7     0.00    1022     364    866.5   62.9
 126   11:30   72.9    23    5.8    20     12.4     0.00    1027     363    866.4   63.4
 126   11:40   73.3    23    6.8   345     12.8     0.00    1032     366    866.4   63.9
 126   11:50   73.3    23    7.7   315     14.1     0.00    1032     366    866.3   64.4
 126   12:00   74.2    22    3.7   286      9.0     0.00    1035     368    866.2   64.9
 126   12:10   74.5    22    8.0   326     12.7     0.00    1031     372    866.1   65.4
 126   12:20   74.9    22    4.8   286     10.1     0.00    1031     370    866.2   66.0
 126   12:30   75.7    21    6.3   294     12.7     0.00    1027     374    866.0   66.5
 126   12:40   76.2    20    7.1   303     12.6     0.00    1022     375    865.9   67.0
 126   12:50   76.6    19    4.9   335     10.6     0.00    1014     374    865.8   67.5

Return to Reno (UNR), Nevada graphs page.


Western Regional Climate Center,wrcc@dri.edu